Terminal Aerodrome Forecast
Issued by NWS Jacksonville, FL

Home | Current Version | Previous Version | Text Only | Print | Product List | Glossary On
Versions: 1 2 3 4 5 6 7 8 9 10 11 12 13 14 15 16 17 18 19 20 21
000
FTUS42 KJAX 201131
TAFGNV
TAF
KGNV 201131Z 2012/2112 02005KT P6SM FEW250
     FM201600 06010KT P6SM FEW030
     FM202300 07005KT P6SM FEW040 SCT250
     FM210600 VRB02KT P6SM SCT040 BKN070=

USA.gov is the U.S. government's official web portal to all federal, state and local government web resources and services.